sensor_id;sensor_type;location;lat;lon;timestamp;temperature;humidity
49218;DHT22;35045;51.194;7.268;2023-07-31T00:01:48;15.30;99.90
49218;DHT22;35045;51.194;7.268;2023-07-31T00:04:14;15.30;99.90
49218;DHT22;35045;51.194;7.268;2023-07-31T00:06:40;15.30;99.90
49218;DHT22;35045;51.194;7.268;2023-07-31T00:09:07;15.30;99.90
49218;DHT22;35045;51.194;7.268;2023-07-31T00:11:33;15.30;99.90
49218;DHT22;35045;51.194;7.268;2023-07-31T00:13:59;15.30;99.90
49218;DHT22;35045;51.194;7.268;2023-07-31T00:16:25;15.30;99.90
49218;DHT22;35045;51.194;7.268;2023-07-31T00:18:51;15.30;99.90
49218;DHT22;35045;51.194;7.268;2023-07-31T00:21:17;15.40;99.90
49218;DHT22;35045;51.194;7.268;2023-07-31T00:23:43;15.40;99.90
49218;DHT22;35045;51.194;7.268;2023-07-31T00:26:09;15.40;99.90
49218;DHT22;35045;51.194;7.268;2023-07-31T00:28:35;15.40;99.90
49218;DHT22;35045;51.194;7.268;2023-07-31T00:31:01;15.40;99.90
49218;DHT22;35045;51.194;7.268;2023-07-31T00:33:30;15.40;99.90
49218;DHT22;35045;51.194;7.268;2023-07-31T00:35:56;15.40;99.90
49218;DHT22;35045;51.194;7.268;2023-07-31T00:38:22;15.40;99.90
49218;DHT22;35045;51.194;7.268;2023-07-31T00:40:49;15.40;99.90
49218;DHT22;35045;51.194;7.268;2023-07-31T00:43:15;15.40;99.90
49218;DHT22;35045;51.194;7.268;2023-07-31T00:45:41;15.40;99.90
49218;DHT22;35045;51.194;7.268;2023-07-31T00:48:07;15.40;99.90
49218;DHT22;35045;51.194;7.268;2023-07-31T00:50:33;15.40;99.90
49218;DHT22;35045;51.194;7.268;2023-07-31T00:53:00;15.30;99.90
49218;DHT22;35045;51.194;7.268;2023-07-31T00:55:26;15.30;99.90
49218;DHT22;35045;51.194;7.268;2023-07-31T00:57:52;15.40;99.90
49218;DHT22;35045;51.194;7.268;2023-07-31T01:00:21;15.40;99.90
49218;DHT22;35045;51.194;7.268;2023-07-31T01:02:50;15.40;99.90
49218;DHT22;35045;51.194;7.268;2023-07-31T01:05:19;15.40;99.90
49218;DHT22;35045;51.194;7.268;2023-07-31T01:07:52;15.40;99.90
49218;DHT22;35045;51.194;7.268;2023-07-31T01:10:20;15.40;99.90
49218;DHT22;35045;51.194;7.268;2023-07-31T01:12:47;15.40;99.90
49218;DHT22;35045;51.194;7.268;2023-07-31T01:15:13;15.40;99.90
49218;DHT22;35045;51.194;7.268;2023-07-31T01:17:43;15.40;99.90
49218;DHT22;35045;51.194;7.268;2023-07-31T01:20:16;15.40;99.90
49218;DHT22;35045;51.194;7.268;2023-07-31T01:27:50;15.40;99.90
49218;DHT22;35045;51.194;7.268;2023-07-31T01:30:18;15.40;99.90
49218;DHT22;35045;51.194;7.268;2023-07-31T01:32:48;15.40;99.90
49218;DHT22;35045;51.194;7.268;2023-07-31T01:35:15;15.40;99.90
49218;DHT22;35045;51.194;7.268;2023-07-31T01:37:41;15.40;99.90
49218;DHT22;35045;51.194;7.268;2023-07-31T01:40:07;15.40;99.90
49218;DHT22;35045;51.194;7.268;2023-07-31T01:42:33;15.40;99.90
49218;DHT22;35045;51.194;7.268;2023-07-31T01:44:59;15.40;99.90
49218;DHT22;35045;51.194;7.268;2023-07-31T01:47:25;15.30;99.90
49218;DHT22;35045;51.194;7.268;2023-07-31T01:49:51;15.30;99.90
49218;DHT22;35045;51.194;7.268;2023-07-31T01:52:17;15.40;99.90
49218;DHT22;35045;51.194;7.268;2023-07-31T01:54:44;15.40;99.90
49218;DHT22;35045;51.194;7.268;2023-07-31T01:57:09;15.40;99.90
49218;DHT22;35045;51.194;7.268;2023-07-31T01:59:36;15.40;99.90
49218;DHT22;35045;51.194;7.268;2023-07-31T02:02:02;15.40;99.90
49218;DHT22;35045;51.194;7.268;2023-07-31T02:04:28;15.40;99.90
49218;DHT22;35045;51.194;7.268;2023-07-31T02:06:54;15.40;99.90
49218;DHT22;35045;51.194;7.268;2023-07-31T02:09:20;15.40;99.90
49218;DHT22;35045;51.194;7.268;2023-07-31T02:11:46;15.40;99.90
49218;DHT22;35045;51.194;7.268;2023-07-31T02:14:12;15.40;99.90
49218;DHT22;35045;51.194;7.268;2023-07-31T02:16:38;15.30;99.90
49218;DHT22;35045;51.194;7.268;2023-07-31T02:19:04;15.30;99.90
49218;DHT22;35045;51.194;7.268;2023-07-31T02:21:30;15.30;99.90
49218;DHT22;35045;51.194;7.268;2023-07-31T02:23:56;15.30;99.90
49218;DHT22;35045;51.194;7.268;2023-07-31T02:26:22;15.30;99.90
49218;DHT22;35045;51.194;7.268;2023-07-31T02:28:48;15.40;99.90
49218;DHT22;35045;51.194;7.268;2023-07-31T02:31:14;15.40;99.90
49218;DHT22;35045;51.194;7.268;2023-07-31T02:33:40;15.40;99.90
49218;DHT22;35045;51.194;7.268;2023-07-31T02:36:06;15.40;99.90
49218;DHT22;35045;51.194;7.268;2023-07-31T02:38:32;15.40;99.90
49218;DHT22;35045;51.194;7.268;2023-07-31T02:40:58;15.40;99.90
49218;DHT22;35045;51.194;7.268;2023-07-31T02:43:24;15.40;99.90
49218;DHT22;35045;51.194;7.268;2023-07-31T02:45:51;15.40;99.90
49218;DHT22;35045;51.194;7.268;2023-07-31T02:48:17;15.40;99.90
49218;DHT22;35045;51.194;7.268;2023-07-31T02:50:43;15.40;99.90
49218;DHT22;35045;51.194;7.268;2023-07-31T02:53:09;15.50;99.90
49218;DHT22;35045;51.194;7.268;2023-07-31T02:55:35;15.50;99.90
49218;DHT22;35045;51.194;7.268;2023-07-31T02:58:01;15.50;99.90
49218;DHT22;35045;51.194;7.268;2023-07-31T03:00:27;15.50;99.90
49218;DHT22;35045;51.194;7.268;2023-07-31T03:02:53;15.50;99.90
49218;DHT22;35045;51.194;7.268;2023-07-31T03:05:19;15.50;99.90
49218;DHT22;35045;51.194;7.268;2023-07-31T03:07:46;15.50;99.90
49218;DHT22;35045;51.194;7.268;2023-07-31T03:10:12;15.50;99.90
49218;DHT22;35045;51.194;7.268;2023-07-31T03:12:38;15.50;99.90
49218;DHT22;35045;51.194;7.268;2023-07-31T03:15:04;15.50;99.90
49218;DHT22;35045;51.194;7.268;2023-07-31T03:17:30;15.50;99.90
49218;DHT22;35045;51.194;7.268;2023-07-31T03:19:56;15.60;99.90
49218;DHT22;35045;51.194;7.268;2023-07-31T03:22:22;15.60;99.90
49218;DHT22;35045;51.194;7.268;2023-07-31T03:24:48;15.60;99.90
49218;DHT22;35045;51.194;7.268;2023-07-31T03:27:14;15.60;99.90
49218;DHT22;35045;51.194;7.268;2023-07-31T03:29:40;15.60;99.90
49218;DHT22;35045;51.194;7.268;2023-07-31T03:32:06;15.60;99.90
49218;DHT22;35045;51.194;7.268;2023-07-31T03:34:32;15.60;99.90
49218;DHT22;35045;51.194;7.268;2023-07-31T03:36:58;15.70;99.90
49218;DHT22;35045;51.194;7.268;2023-07-31T03:39:24;15.60;99.90
49218;DHT22;35045;51.194;7.268;2023-07-31T03:41:50;15.60;99.90
49218;DHT22;35045;51.194;7.268;2023-07-31T03:44:16;15.70;99.90
49218;DHT22;35045;51.194;7.268;2023-07-31T03:46:42;15.70;99.90
49218;DHT22;35045;51.194;7.268;2023-07-31T03:49:08;15.70;99.90
49218;DHT22;35045;51.194;7.268;2023-07-31T03:51:34;15.80;99.90
49218;DHT22;35045;51.194;7.268;2023-07-31T03:54:00;15.70;99.90
49218;DHT22;35045;51.194;7.268;2023-07-31T03:56:26;15.70;99.90
49218;DHT22;35045;51.194;7.268;2023-07-31T03:58:52;15.70;99.90
49218;DHT22;35045;51.194;7.268;2023-07-31T04:01:19;15.80;99.90
49218;DHT22;35045;51.194;7.268;2023-07-31T04:03:45;15.80;99.90
49218;DHT22;35045;51.194;7.268;2023-07-31T04:06:11;15.80;99.90
49218;DHT22;35045;51.194;7.268;2023-07-31T04:08:37;15.80;99.90
49218;DHT22;35045;51.194;7.268;2023-07-31T04:11:03;15.80;99.90
49218;DHT22;35045;51.194;7.268;2023-07-31T04:13:29;15.80;99.90
49218;DHT22;35045;51.194;7.268;2023-07-31T04:15:56;15.80;99.90
49218;DHT22;35045;51.194;7.268;2023-07-31T04:18:22;15.80;99.90
49218;DHT22;35045;51.194;7.268;2023-07-31T04:20:48;15.80;99.90
49218;DHT22;35045;51.194;7.268;2023-07-31T04:23:14;15.80;99.90
49218;DHT22;35045;51.194;7.268;2023-07-31T04:25:40;15.80;99.90
49218;DHT22;35045;51.194;7.268;2023-07-31T04:28:06;15.80;99.90
49218;DHT22;35045;51.194;7.268;2023-07-31T04:30:33;15.80;99.90
49218;DHT22;35045;51.194;7.268;2023-07-31T04:32:59;15.80;99.90
49218;DHT22;35045;51.194;7.268;2023-07-31T04:35:25;15.80;99.90
49218;DHT22;35045;51.194;7.268;2023-07-31T04:37:51;15.80;99.90
49218;DHT22;35045;51.194;7.268;2023-07-31T04:40:17;15.90;99.90
49218;DHT22;35045;51.194;7.268;2023-07-31T04:42:43;15.80;99.90
49218;DHT22;35045;51.194;7.268;2023-07-31T04:45:09;15.90;99.90
49218;DHT22;35045;51.194;7.268;2023-07-31T04:47:35;15.90;99.90
49218;DHT22;35045;51.194;7.268;2023-07-31T04:50:01;15.90;99.90
49218;DHT22;35045;51.194;7.268;2023-07-31T04:52:27;15.90;99.90
49218;DHT22;35045;51.194;7.268;2023-07-31T04:54:55;15.90;99.90
49218;DHT22;35045;51.194;7.268;2023-07-31T04:57:21;15.80;99.90
49218;DHT22;35045;51.194;7.268;2023-07-31T04:59:47;15.90;99.90
49218;DHT22;35045;51.194;7.268;2023-07-31T05:02:13;15.90;99.90
49218;DHT22;35045;51.194;7.268;2023-07-31T05:04:39;15.90;99.90
49218;DHT22;35045;51.194;7.268;2023-07-31T05:07:05;15.90;99.90
49218;DHT22;35045;51.194;7.268;2023-07-31T05:09:31;15.90;99.90
49218;DHT22;35045;51.194;7.268;2023-07-31T05:11:57;15.90;99.90
49218;DHT22;35045;51.194;7.268;2023-07-31T05:14:23;15.90;99.90
49218;DHT22;35045;51.194;7.268;2023-07-31T05:16:49;16.00;99.90
49218;DHT22;35045;51.194;7.268;2023-07-31T05:19:15;16.00;99.90
49218;DHT22;35045;51.194;7.268;2023-07-31T05:21:41;16.00;99.90
49218;DHT22;35045;51.194;7.268;2023-07-31T05:24:07;16.00;99.90
49218;DHT22;35045;51.194;7.268;2023-07-31T05:26:34;16.10;99.90
49218;DHT22;35045;51.194;7.268;2023-07-31T05:29:00;16.00;99.90
49218;DHT22;35045;51.194;7.268;2023-07-31T05:31:26;16.10;99.90
49218;DHT22;35045;51.194;7.268;2023-07-31T05:33:52;16.00;99.90
49218;DHT22;35045;51.194;7.268;2023-07-31T05:36:18;16.00;99.90
49218;DHT22;35045;51.194;7.268;2023-07-31T05:38:44;16.10;99.90
49218;DHT22;35045;51.194;7.268;2023-07-31T05:41:13;16.10;99.90
49218;DHT22;35045;51.194;7.268;2023-07-31T05:43:39;16.20;99.90
49218;DHT22;35045;51.194;7.268;2023-07-31T05:46:05;16.30;99.90
49218;DHT22;35045;51.194;7.268;2023-07-31T05:48:32;16.30;99.90
49218;DHT22;35045;51.194;7.268;2023-07-31T05:51:00;16.30;99.90
49218;DHT22;35045;51.194;7.268;2023-07-31T05:53:26;16.30;99.90
49218;DHT22;35045;51.194;7.268;2023-07-31T05:55:52;16.30;99.90
49218;DHT22;35045;51.194;7.268;2023-07-31T05:58:18;16.30;99.90
49218;DHT22;35045;51.194;7.268;2023-07-31T06:00:44;16.30;99.90
49218;DHT22;35045;51.194;7.268;2023-07-31T06:03:10;16.30;99.90
49218;DHT22;35045;51.194;7.268;2023-07-31T06:05:36;16.30;99.90
49218;DHT22;35045;51.194;7.268;2023-07-31T06:08:02;16.30;99.90
49218;DHT22;35045;51.194;7.268;2023-07-31T06:10:28;16.40;99.90
49218;DHT22;35045;51.194;7.268;2023-07-31T06:12:54;16.30;99.90
49218;DHT22;35045;51.194;7.268;2023-07-31T06:15:20;16.40;99.90
49218;DHT22;35045;51.194;7.268;2023-07-31T06:17:46;16.40;99.90
49218;DHT22;35045;51.194;7.268;2023-07-31T06:20:12;16.40;99.90
49218;DHT22;35045;51.194;7.268;2023-07-31T06:22:39;16.40;99.90
49218;DHT22;35045;51.194;7.268;2023-07-31T06:25:05;16.40;99.90
49218;DHT22;35045;51.194;7.268;2023-07-31T06:27:31;16.30;99.90
49218;DHT22;35045;51.194;7.268;2023-07-31T06:29:57;16.30;99.90
49218;DHT22;35045;51.194;7.268;2023-07-31T06:32:23;16.30;99.90
49218;DHT22;35045;51.194;7.268;2023-07-31T06:34:49;16.30;99.90
49218;DHT22;35045;51.194;7.268;2023-07-31T06:37:16;16.20;99.90
49218;DHT22;35045;51.194;7.268;2023-07-31T06:39:42;16.20;99.90
49218;DHT22;35045;51.194;7.268;2023-07-31T06:42:08;16.20;99.90
49218;DHT22;35045;51.194;7.268;2023-07-31T06:44:34;16.20;99.90
49218;DHT22;35045;51.194;7.268;2023-07-31T06:47:00;16.20;99.90
49218;DHT22;35045;51.194;7.268;2023-07-31T06:49:26;16.20;99.90
49218;DHT22;35045;51.194;7.268;2023-07-31T06:51:53;16.20;99.90
49218;DHT22;35045;51.194;7.268;2023-07-31T06:54:19;16.20;99.90
49218;DHT22;35045;51.194;7.268;2023-07-31T06:56:45;16.20;99.90
49218;DHT22;35045;51.194;7.268;2023-07-31T06:59:11;16.20;99.90
49218;DHT22;35045;51.194;7.268;2023-07-31T07:01:37;16.30;99.90
49218;DHT22;35045;51.194;7.268;2023-07-31T07:04:03;16.30;99.90
49218;DHT22;35045;51.194;7.268;2023-07-31T07:06:29;16.30;99.90
49218;DHT22;35045;51.194;7.268;2023-07-31T07:08:55;16.20;99.90
49218;DHT22;35045;51.194;7.268;2023-07-31T07:11:21;16.20;99.90
49218;DHT22;35045;51.194;7.268;2023-07-31T07:13:47;16.30;99.90
49218;DHT22;35045;51.194;7.268;2023-07-31T07:16:13;16.40;99.90
49218;DHT22;35045;51.194;7.268;2023-07-31T07:18:40;16.50;99.90
49218;DHT22;35045;51.194;7.268;2023-07-31T07:21:06;16.40;99.90
49218;DHT22;35045;51.194;7.268;2023-07-31T07:23:32;16.40;99.90
49218;DHT22;35045;51.194;7.268;2023-07-31T07:25:58;16.40;99.90
49218;DHT22;35045;51.194;7.268;2023-07-31T07:28:24;16.40;99.90
49218;DHT22;35045;51.194;7.268;2023-07-31T07:30:51;16.40;99.90
49218;DHT22;35045;51.194;7.268;2023-07-31T07:33:17;16.40;99.90
49218;DHT22;35045;51.194;7.268;2023-07-31T07:35:43;16.40;99.90
49218;DHT22;35045;51.194;7.268;2023-07-31T07:38:09;16.30;99.90
49218;DHT22;35045;51.194;7.268;2023-07-31T07:40:41;16.30;99.90
49218;DHT22;35045;51.194;7.268;2023-07-31T07:43:07;16.30;99.90
49218;DHT22;35045;51.194;7.268;2023-07-31T07:45:33;16.20;99.90
49218;DHT22;35045;51.194;7.268;2023-07-31T07:47:59;16.20;99.90
49218;DHT22;35045;51.194;7.268;2023-07-31T07:50:25;16.20;99.90
49218;DHT22;35045;51.194;7.268;2023-07-31T07:52:51;16.30;99.90
49218;DHT22;35045;51.194;7.268;2023-07-31T07:55:18;16.30;99.90
49218;DHT22;35045;51.194;7.268;2023-07-31T07:57:44;16.30;99.90
49218;DHT22;35045;51.194;7.268;2023-07-31T08:00:11;16.30;99.90
49218;DHT22;35045;51.194;7.268;2023-07-31T08:02:37;16.40;99.90
49218;DHT22;35045;51.194;7.268;2023-07-31T08:05:04;16.40;99.90
49218;DHT22;35045;51.194;7.268;2023-07-31T08:07:30;16.50;99.90
49218;DHT22;35045;51.194;7.268;2023-07-31T08:09:56;16.40;99.90
49218;DHT22;35045;51.194;7.268;2023-07-31T08:12:22;16.40;99.90
49218;DHT22;35045;51.194;7.268;2023-07-31T08:14:48;16.20;99.90
49218;DHT22;35045;51.194;7.268;2023-07-31T08:17:14;16.20;99.90
49218;DHT22;35045;51.194;7.268;2023-07-31T08:19:40;16.20;99.90
49218;DHT22;35045;51.194;7.268;2023-07-31T08:22:06;16.20;99.90
49218;DHT22;35045;51.194;7.268;2023-07-31T08:24:32;16.20;99.90
49218;DHT22;35045;51.194;7.268;2023-07-31T08:26:58;16.20;99.90
49218;DHT22;35045;51.194;7.268;2023-07-31T08:29:24;16.20;99.90
49218;DHT22;35045;51.194;7.268;2023-07-31T08:31:50;16.20;99.90
49218;DHT22;35045;51.194;7.268;2023-07-31T08:34:16;16.30;99.90
49218;DHT22;35045;51.194;7.268;2023-07-31T08:36:42;16.10;99.90
49218;DHT22;35045;51.194;7.268;2023-07-31T08:39:09;16.10;99.90
49218;DHT22;35045;51.194;7.268;2023-07-31T08:41:40;16.00;99.90
49218;DHT22;35045;51.194;7.268;2023-07-31T08:44:07;16.00;99.90
49218;DHT22;35045;51.194;7.268;2023-07-31T08:46:33;16.00;99.90
49218;DHT22;35045;51.194;7.268;2023-07-31T08:48:59;16.10;99.90
49218;DHT22;35045;51.194;7.268;2023-07-31T08:51:26;16.10;99.90
49218;DHT22;35045;51.194;7.268;2023-07-31T08:53:52;16.00;99.90
49218;DHT22;35045;51.194;7.268;2023-07-31T08:56:18;16.00;99.90
49218;DHT22;35045;51.194;7.268;2023-07-31T08:58:45;16.00;99.90
49218;DHT22;35045;51.194;7.268;2023-07-31T09:01:12;16.10;99.90
49218;DHT22;35045;51.194;7.268;2023-07-31T09:03:38;16.20;99.90
49218;DHT22;35045;51.194;7.268;2023-07-31T09:06:05;16.20;99.90
49218;DHT22;35045;51.194;7.268;2023-07-31T09:08:32;16.20;99.90
49218;DHT22;35045;51.194;7.268;2023-07-31T09:11:02;16.20;99.90
49218;DHT22;35045;51.194;7.268;2023-07-31T09:13:31;16.20;99.90
49218;DHT22;35045;51.194;7.268;2023-07-31T09:15:58;16.30;99.90
49218;DHT22;35045;51.194;7.268;2023-07-31T09:18:24;16.40;99.90
49218;DHT22;35045;51.194;7.268;2023-07-31T09:21:03;16.40;99.90
49218;DHT22;35045;51.194;7.268;2023-07-31T09:23:45;16.40;99.90
49218;DHT22;35045;51.194;7.268;2023-07-31T09:26:28;16.30;99.90
49218;DHT22;35045;51.194;7.268;2023-07-31T09:28:54;16.40;99.90
49218;DHT22;35045;51.194;7.268;2023-07-31T09:31:33;16.30;99.90
49218;DHT22;35045;51.194;7.268;2023-07-31T09:33:59;16.30;99.90
49218;DHT22;35045;51.194;7.268;2023-07-31T09:36:28;16.30;99.90
49218;DHT22;35045;51.194;7.268;2023-07-31T09:38:55;16.30;99.90
49218;DHT22;35045;51.194;7.268;2023-07-31T09:41:21;16.30;99.90
49218;DHT22;35045;51.194;7.268;2023-07-31T09:43:53;16.30;99.90
49218;DHT22;35045;51.194;7.268;2023-07-31T09:46:20;16.30;99.90
49218;DHT22;35045;51.194;7.268;2023-07-31T09:48:46;16.30;99.90
49218;DHT22;35045;51.194;7.268;2023-07-31T09:51:12;16.30;99.90
49218;DHT22;35045;51.194;7.268;2023-07-31T09:53:38;16.30;99.90
49218;DHT22;35045;51.194;7.268;2023-07-31T09:56:04;16.30;99.90
49218;DHT22;35045;51.194;7.268;2023-07-31T09:58:30;16.30;99.90
49218;DHT22;35045;51.194;7.268;2023-07-31T10:00:59;16.40;99.90
49218;DHT22;35045;51.194;7.268;2023-07-31T10:03:27;16.40;99.90
49218;DHT22;35045;51.194;7.268;2023-07-31T10:05:55;16.30;99.90
49218;DHT22;35045;51.194;7.268;2023-07-31T10:08:23;16.40;99.90
49218;DHT22;35045;51.194;7.268;2023-07-31T10:10:52;16.30;99.90
49218;DHT22;35045;51.194;7.268;2023-07-31T10:13:18;16.30;99.90
49218;DHT22;35045;51.194;7.268;2023-07-31T10:15:48;16.30;99.90
49218;DHT22;35045;51.194;7.268;2023-07-31T10:18:14;16.40;99.90
49218;DHT22;35045;51.194;7.268;2023-07-31T10:20:40;16.40;99.90
49218;DHT22;35045;51.194;7.268;2023-07-31T10:23:06;16.50;99.90
49218;DHT22;35045;51.194;7.268;2023-07-31T10:25:32;16.60;99.90
49218;DHT22;35045;51.194;7.268;2023-07-31T10:27:59;16.70;99.90
49218;DHT22;35045;51.194;7.268;2023-07-31T10:30:26;16.70;99.90
49218;DHT22;35045;51.194;7.268;2023-07-31T10:32:53;16.70;99.90
49218;DHT22;35045;51.194;7.268;2023-07-31T10:35:19;16.60;99.90
49218;DHT22;35045;51.194;7.268;2023-07-31T10:37:48;16.50;99.90
49218;DHT22;35045;51.194;7.268;2023-07-31T10:40:17;16.60;99.90
49218;DHT22;35045;51.194;7.268;2023-07-31T10:42:52;16.60;99.90
49218;DHT22;35045;51.194;7.268;2023-07-31T10:48:02;16.60;99.90
49218;DHT22;35045;51.194;7.268;2023-07-31T10:50:29;16.60;99.90
49218;DHT22;35045;51.194;7.268;2023-07-31T10:52:58;16.60;99.90
49218;DHT22;35045;51.194;7.268;2023-07-31T10:57:54;16.60;99.90
49218;DHT22;35045;51.194;7.268;2023-07-31T11:00:21;16.60;99.90
49218;DHT22;35045;51.194;7.268;2023-07-31T11:03:03;16.50;99.90
49218;DHT22;35045;51.194;7.268;2023-07-31T11:05:49;16.50;99.90
49218;DHT22;35045;51.194;7.268;2023-07-31T11:10:49;16.50;99.90
49218;DHT22;35045;51.194;7.268;2023-07-31T11:13:15;16.60;99.90
49218;DHT22;35045;51.194;7.268;2023-07-31T11:15:41;16.50;99.90
49218;DHT22;35045;51.194;7.268;2023-07-31T11:18:07;16.60;99.90
49218;DHT22;35045;51.194;7.268;2023-07-31T11:20:36;16.60;99.90
49218;DHT22;35045;51.194;7.268;2023-07-31T11:23:03;16.70;99.90
49218;DHT22;35045;51.194;7.268;2023-07-31T11:25:32;16.70;99.90
49218;DHT22;35045;51.194;7.268;2023-07-31T11:28:11;16.70;99.90
49218;DHT22;35045;51.194;7.268;2023-07-31T11:30:38;16.70;99.90
49218;DHT22;35045;51.194;7.268;2023-07-31T11:33:05;16.70;99.90
49218;DHT22;35045;51.194;7.268;2023-07-31T11:35:35;16.70;99.90
49218;DHT22;35045;51.194;7.268;2023-07-31T11:38:01;16.80;99.90
49218;DHT22;35045;51.194;7.268;2023-07-31T11:40:28;16.80;99.90
49218;DHT22;35045;51.194;7.268;2023-07-31T11:42:57;16.80;99.90
49218;DHT22;35045;51.194;7.268;2023-07-31T11:45:26;16.80;99.90
49218;DHT22;35045;51.194;7.268;2023-07-31T11:47:53;16.80;99.90
49218;DHT22;35045;51.194;7.268;2023-07-31T11:50:20;16.80;99.90
49218;DHT22;35045;51.194;7.268;2023-07-31T11:52:46;16.80;99.90
49218;DHT22;35045;51.194;7.268;2023-07-31T11:55:14;16.80;99.90
49218;DHT22;35045;51.194;7.268;2023-07-31T11:57:41;16.80;99.90
49218;DHT22;35045;51.194;7.268;2023-07-31T12:00:09;16.80;99.90
49218;DHT22;35045;51.194;7.268;2023-07-31T12:02:37;16.80;99.90
49218;DHT22;35045;51.194;7.268;2023-07-31T12:05:03;16.80;99.90
49218;DHT22;35045;51.194;7.268;2023-07-31T12:07:42;16.80;99.90
49218;DHT22;35045;51.194;7.268;2023-07-31T12:10:08;16.90;99.90
49218;DHT22;35045;51.194;7.268;2023-07-31T12:12:34;16.90;99.90
49218;DHT22;35045;51.194;7.268;2023-07-31T12:15:00;16.90;99.90
49218;DHT22;35045;51.194;7.268;2023-07-31T12:17:27;16.90;99.90
49218;DHT22;35045;51.194;7.268;2023-07-31T12:19:53;17.00;99.90
49218;DHT22;35045;51.194;7.268;2023-07-31T12:22:19;17.00;99.90
49218;DHT22;35045;51.194;7.268;2023-07-31T12:24:46;17.10;99.90
49218;DHT22;35045;51.194;7.268;2023-07-31T12:27:13;17.10;99.90
49218;DHT22;35045;51.194;7.268;2023-07-31T12:29:41;17.20;99.90
49218;DHT22;35045;51.194;7.268;2023-07-31T12:32:25;17.20;99.90
49218;DHT22;35045;51.194;7.268;2023-07-31T12:34:58;17.30;99.90
49218;DHT22;35045;51.194;7.268;2023-07-31T12:37:24;17.30;99.90
49218;DHT22;35045;51.194;7.268;2023-07-31T12:39:51;17.30;99.90
49218;DHT22;35045;51.194;7.268;2023-07-31T12:42:17;17.40;99.90
49218;DHT22;35045;51.194;7.268;2023-07-31T12:44:43;17.40;99.90
49218;DHT22;35045;51.194;7.268;2023-07-31T12:47:09;17.40;99.90
49218;DHT22;35045;51.194;7.268;2023-07-31T12:49:35;17.40;99.90
49218;DHT22;35045;51.194;7.268;2023-07-31T12:52:01;17.40;99.90
49218;DHT22;35045;51.194;7.268;2023-07-31T12:54:27;17.40;99.90
49218;DHT22;35045;51.194;7.268;2023-07-31T12:56:54;17.40;99.90
49218;DHT22;35045;51.194;7.268;2023-07-31T12:59:21;17.40;99.90
49218;DHT22;35045;51.194;7.268;2023-07-31T13:01:47;17.40;99.90
49218;DHT22;35045;51.194;7.268;2023-07-31T13:04:13;17.40;99.90
49218;DHT22;35045;51.194;7.268;2023-07-31T13:06:39;17.40;99.90
49218;DHT22;35045;51.194;7.268;2023-07-31T13:09:05;17.40;99.90
49218;DHT22;35045;51.194;7.268;2023-07-31T13:11:31;17.40;99.90
49218;DHT22;35045;51.194;7.268;2023-07-31T13:13:57;17.40;99.90
49218;DHT22;35045;51.194;7.268;2023-07-31T13:16:23;17.50;99.90
49218;DHT22;35045;51.194;7.268;2023-07-31T13:18:50;17.60;99.90
49218;DHT22;35045;51.194;7.268;2023-07-31T13:21:17;17.70;99.90
49218;DHT22;35045;51.194;7.268;2023-07-31T13:23:46;17.60;99.90
49218;DHT22;35045;51.194;7.268;2023-07-31T13:26:12;17.70;99.90
49218;DHT22;35045;51.194;7.268;2023-07-31T13:28:38;17.60;99.90
49218;DHT22;35045;51.194;7.268;2023-07-31T13:31:04;17.60;99.90
49218;DHT22;35045;51.194;7.268;2023-07-31T13:33:30;17.60;99.90
49218;DHT22;35045;51.194;7.268;2023-07-31T13:36:01;17.50;99.90
49218;DHT22;35045;51.194;7.268;2023-07-31T13:38:27;17.50;99.90
49218;DHT22;35045;51.194;7.268;2023-07-31T13:40:53;17.50;99.90
49218;DHT22;35045;51.194;7.268;2023-07-31T13:43:19;17.50;99.90
49218;DHT22;35045;51.194;7.268;2023-07-31T13:45:46;17.50;99.90
49218;DHT22;35045;51.194;7.268;2023-07-31T13:48:12;17.50;99.90
49218;DHT22;35045;51.194;7.268;2023-07-31T13:50:38;17.60;99.90
49218;DHT22;35045;51.194;7.268;2023-07-31T13:53:05;17.60;99.90
49218;DHT22;35045;51.194;7.268;2023-07-31T13:55:31;17.70;99.90
49218;DHT22;35045;51.194;7.268;2023-07-31T13:57:57;17.80;99.90
49218;DHT22;35045;51.194;7.268;2023-07-31T14:00:23;18.00;99.90
49218;DHT22;35045;51.194;7.268;2023-07-31T14:02:49;18.20;99.90
49218;DHT22;35045;51.194;7.268;2023-07-31T14:05:15;18.40;99.90
49218;DHT22;35045;51.194;7.268;2023-07-31T14:07:41;18.60;99.90
49218;DHT22;35045;51.194;7.268;2023-07-31T14:10:07;18.70;99.90
49218;DHT22;35045;51.194;7.268;2023-07-31T14:12:33;18.70;99.90
49218;DHT22;35045;51.194;7.268;2023-07-31T14:15:06;18.70;99.90
49218;DHT22;35045;51.194;7.268;2023-07-31T14:17:32;18.70;99.90
49218;DHT22;35045;51.194;7.268;2023-07-31T14:19:58;18.70;99.90
49218;DHT22;35045;51.194;7.268;2023-07-31T14:22:28;18.70;99.90
49218;DHT22;35045;51.194;7.268;2023-07-31T14:24:55;18.60;99.90
49218;DHT22;35045;51.194;7.268;2023-07-31T14:27:21;18.60;99.90
49218;DHT22;35045;51.194;7.268;2023-07-31T14:29:47;18.50;99.90
49218;DHT22;35045;51.194;7.268;2023-07-31T14:32:13;18.40;99.90
49218;DHT22;35045;51.194;7.268;2023-07-31T14:34:39;18.40;99.90
49218;DHT22;35045;51.194;7.268;2023-07-31T14:37:05;18.50;99.90
49218;DHT22;35045;51.194;7.268;2023-07-31T14:39:31;18.40;99.90
49218;DHT22;35045;51.194;7.268;2023-07-31T14:41:57;18.40;99.90
49218;DHT22;35045;51.194;7.268;2023-07-31T14:44:23;18.40;99.90
49218;DHT22;35045;51.194;7.268;2023-07-31T14:46:49;18.40;99.90
49218;DHT22;35045;51.194;7.268;2023-07-31T14:49:15;18.40;99.90
49218;DHT22;35045;51.194;7.268;2023-07-31T14:51:41;18.40;99.90
49218;DHT22;35045;51.194;7.268;2023-07-31T14:54:07;18.40;99.90
49218;DHT22;35045;51.194;7.268;2023-07-31T14:56:34;18.40;99.90
49218;DHT22;35045;51.194;7.268;2023-07-31T14:59:00;18.40;99.90
49218;DHT22;35045;51.194;7.268;2023-07-31T15:01:26;18.40;99.90
49218;DHT22;35045;51.194;7.268;2023-07-31T15:03:52;18.40;99.90
49218;DHT22;35045;51.194;7.268;2023-07-31T15:06:18;18.40;99.90
49218;DHT22;35045;51.194;7.268;2023-07-31T15:08:44;18.40;99.90
49218;DHT22;35045;51.194;7.268;2023-07-31T15:11:10;18.30;99.90
49218;DHT22;35045;51.194;7.268;2023-07-31T15:13:36;18.30;99.90
49218;DHT22;35045;51.194;7.268;2023-07-31T15:16:02;18.20;99.90
49218;DHT22;35045;51.194;7.268;2023-07-31T15:18:29;18.10;99.90
49218;DHT22;35045;51.194;7.268;2023-07-31T15:20:55;18.10;99.90
49218;DHT22;35045;51.194;7.268;2023-07-31T15:23:21;18.00;99.90
49218;DHT22;35045;51.194;7.268;2023-07-31T15:25:47;17.90;99.90
49218;DHT22;35045;51.194;7.268;2023-07-31T15:28:13;18.00;99.90
49218;DHT22;35045;51.194;7.268;2023-07-31T15:30:39;18.00;99.90
49218;DHT22;35045;51.194;7.268;2023-07-31T15:33:05;18.00;99.90
49218;DHT22;35045;51.194;7.268;2023-07-31T15:35:31;18.00;99.90
49218;DHT22;35045;51.194;7.268;2023-07-31T15:37:57;18.00;99.90
49218;DHT22;35045;51.194;7.268;2023-07-31T15:40:23;18.00;99.90